Treadwell, New York
Current Conditions -  °F | °C
As of 4:55 PM on Saturday 25 Oct 2014 (Local Time) from KMSV Reporting Station
Clear Clear  
Wind Chill: 59°   Ceiling: Unl
Heat Index: 59°   Visibility: 10mi
Dew Point: 41°   Wind: 13mph
Humidity: 51%   Direction: 260°W
Pressure: 29.66"   Gusts: 20mph
Location:  42.34°N, 75.05°W
Report Text: KMSV 252055Z AUTO 26011G17KT 10SM CLR 15/05 A2966 RMK AO1 57027
Loading
Personal Weather Stations






























Interactive Weather Map
Tropical Storm Tracking
New forecast layout! Learn more

10-Day Weather Forecast

Advertisements
Track Severe Weather on mobile